createdAt,value
2022-10-05T00:01:07.601Z,5.11
2022-10-05T00:03:37.615Z,4.51
2022-10-05T00:06:07.633Z,4.77
2022-10-05T00:08:37.651Z,7.57
2022-10-05T00:11:07.708Z,5.93
2022-10-05T00:13:37.700Z,5.77
2022-10-05T00:16:07.744Z,5.41
2022-10-05T00:18:37.735Z,5.17
2022-10-05T00:21:07.761Z,5.95
2022-10-05T00:23:37.773Z,6.02
2022-10-05T00:26:07.801Z,5.93
2022-10-05T00:28:37.920Z,6.6
2022-10-05T00:31:07.853Z,6.14
2022-10-05T00:33:37.875Z,5.88
2022-10-05T00:36:07.913Z,6.66
2022-10-05T00:38:37.968Z,5.84
2022-10-05T00:41:07.961Z,4.73
2022-10-05T00:43:37.975Z,4.96
2022-10-05T00:46:08.087Z,5.58
2022-10-05T00:48:38.031Z,5.93
2022-10-05T00:51:08.071Z,6.86
2022-10-05T00:53:38.079Z,6.58
2022-10-05T00:56:08.103Z,6.18
2022-10-05T00:58:38.128Z,5.82
2022-10-05T01:01:08.176Z,6.28
2022-10-05T01:03:38.167Z,6.65
2022-10-05T01:06:08.202Z,7.15
2022-10-05T01:11:08.248Z,5.83
2022-10-05T01:13:38.265Z,4.77
2022-10-05T01:16:08.426Z,5.51
2022-10-05T01:18:38.309Z,5.88
2022-10-05T01:21:08.333Z,5.2
2022-10-05T01:23:38.347Z,4.58
2022-10-05T01:26:08.389Z,5.11
2022-10-05T01:28:38.444Z,5.61
2022-10-05T01:31:08.484Z,4.93
2022-10-05T01:33:38.466Z,8
2022-10-05T01:36:08.481Z,7.44
2022-10-05T01:41:08.532Z,8.42
2022-10-05T01:43:38.556Z,6.05
2022-10-05T01:46:08.644Z,5.83
2022-10-05T01:48:38.623Z,7.68
2022-10-05T01:51:08.623Z,6.61
2022-10-05T01:53:38.677Z,5.73
2022-10-05T01:56:08.660Z,5.53
2022-10-05T01:58:38.700Z,4.77
2022-10-05T02:03:38.913Z,6.49
2022-10-05T02:06:08.763Z,5.19
2022-10-05T02:08:38.778Z,6.91
2022-10-05T02:11:08.818Z,6.97
2022-10-05T02:13:38.829Z,7.63
2022-10-05T02:16:08.922Z,5.81
2022-10-05T02:21:08.900Z,3.93
2022-10-05T02:26:08.960Z,4.32
2022-10-05T02:28:39.038Z,4.79
2022-10-05T02:31:09.050Z,5.7
2022-10-05T02:38:39.077Z,6.03
2022-10-05T02:41:09.106Z,8.43
2022-10-05T02:43:39.126Z,6.47
2022-10-05T02:46:09.334Z,6.69
2022-10-05T02:48:39.177Z,6.22
2022-10-05T02:51:09.203Z,7.98
2022-10-05T02:53:39.207Z,6.57
2022-10-05T02:58:39.261Z,6.68
2022-10-05T03:01:09.372Z,8.1
2022-10-05T03:03:39.307Z,6.31
2022-10-05T03:06:09.374Z,6.16
2022-10-05T03:08:39.351Z,6.84
2022-10-05T03:11:09.370Z,6.42
2022-10-05T03:13:39.437Z,6.35
2022-10-05T03:16:09.491Z,6.59
2022-10-05T03:18:39.481Z,5.05
2022-10-05T03:23:39.510Z,7.08
2022-10-05T03:26:09.519Z,7.41
2022-10-05T03:28:39.575Z,6.78
2022-10-05T03:33:39.575Z,6.51
2022-10-05T03:38:39.628Z,7.32
2022-10-05T03:43:39.677Z,6.29
2022-10-05T03:48:39.732Z,6.53
2022-10-05T03:51:09.780Z,8.09
2022-10-05T03:53:39.768Z,9.49
2022-10-05T03:56:09.801Z,10.31
2022-10-05T03:58:39.821Z,9.31
2022-10-05T04:01:09.874Z,9.4
2022-10-05T04:03:39.873Z,7.1
2022-10-05T04:06:09.896Z,6.32
2022-10-05T04:08:48.010Z,5.63
2022-10-05T04:11:09.934Z,7.63
2022-10-05T04:13:39.982Z,7.86
2022-10-05T04:16:10.081Z,9.24
2022-10-05T04:18:40.009Z,10.46
2022-10-05T04:21:10.047Z,9.1
2022-10-05T04:26:10.096Z,6.4
2022-10-05T04:28:40.154Z,6.48
2022-10-05T04:31:10.216Z,6.59
2022-10-05T04:33:40.187Z,6.31
2022-10-05T04:36:10.195Z,6.99
2022-10-05T04:38:40.222Z,6.53
2022-10-05T04:41:10.277Z,5.38
2022-10-05T04:43:40.234Z,6.58
2022-10-05T04:46:10.360Z,5.57
2022-10-05T04:48:40.295Z,5.2
2022-10-05T04:51:10.627Z,6.36
2022-10-05T04:56:10.354Z,7.79
2022-10-05T04:58:42.591Z,6.19
2022-10-05T05:01:10.423Z,5.41
2022-10-05T05:06:17.463Z,6.1
2022-10-05T05:08:40.491Z,5.31
2022-10-05T05:16:10.594Z,5.19
2022-10-05T05:18:40.576Z,6.05
2022-10-05T05:21:17.619Z,6.29
2022-10-05T05:23:40.624Z,7.99
2022-10-05T05:26:10.652Z,6.77
2022-10-05T05:28:40.756Z,5.53
2022-10-05T05:31:10.772Z,5.49
2022-10-05T05:33:40.718Z,4.7
2022-10-05T05:36:10.732Z,5.36
2022-10-05T05:38:40.760Z,4.51
2022-10-05T05:41:10.779Z,6.91
2022-10-05T05:43:40.814Z,6.35
2022-10-05T05:46:10.919Z,5.59
2022-10-05T05:48:40.850Z,5.13
2022-10-05T05:51:10.893Z,4.76
2022-10-05T05:53:40.916Z,6.66
2022-10-05T05:56:10.924Z,5.67
2022-10-05T05:58:40.950Z,5.07
2022-10-05T06:01:30.623Z,6.73
2022-10-05T06:03:40.992Z,6.31
2022-10-05T06:06:11.036Z,5.79
2022-10-05T06:11:11.079Z,5.91
2022-10-05T06:21:11.170Z,5.67
2022-10-05T06:26:11.207Z,7.33
2022-10-05T06:38:41.320Z,5.68
2022-10-05T06:43:41.384Z,4.82
2022-10-05T06:48:41.446Z,5.76
2022-10-05T06:51:11.460Z,4.76
2022-10-05T06:53:41.471Z,4.35
2022-10-05T06:58:41.502Z,4.32
2022-10-05T07:01:11.595Z,4.14
2022-10-05T07:03:41.559Z,4.69
2022-10-05T07:06:11.595Z,4.47
2022-10-05T07:08:41.619Z,4.04
2022-10-05T07:11:11.645Z,4.08
2022-10-05T07:13:41.660Z,5.25
2022-10-05T07:16:11.757Z,4.87
2022-10-05T07:18:41.716Z,3.99
2022-10-05T07:21:11.730Z,3.85
2022-10-05T07:23:41.738Z,4.18
2022-10-05T07:26:11.764Z,5.28
2022-10-05T07:28:41.883Z,4.91
2022-10-05T07:31:11.843Z,5.01
2022-10-05T07:33:41.853Z,4.12
2022-10-05T07:36:11.880Z,5.17
2022-10-05T07:38:41.884Z,5.53
2022-10-05T07:41:11.923Z,5.37
2022-10-05T07:44:00.922Z,5.29
2022-10-05T07:46:12.025Z,3.98
2022-10-05T07:48:41.992Z,4.9
2022-10-05T07:51:11.995Z,3.29
2022-10-05T07:53:42.043Z,3.4
2022-10-05T07:56:12.063Z,3.01
2022-10-05T07:58:42.066Z,2.59
2022-10-05T08:01:12.088Z,2.84
2022-10-05T08:03:42.115Z,3.03
2022-10-05T08:06:12.154Z,4.24
2022-10-05T08:08:42.196Z,4.15
2022-10-05T08:11:12.194Z,4.09
2022-10-05T08:13:42.217Z,5.65
2022-10-05T08:16:12.305Z,4.7
2022-10-05T08:18:42.282Z,3.66
2022-10-05T08:21:12.316Z,4.35
2022-10-05T08:23:42.315Z,4.13
2022-10-05T08:26:12.326Z,3.95
2022-10-05T08:28:42.376Z,4.27
2022-10-05T08:31:12.423Z,4
2022-10-05T08:33:42.393Z,3.94
2022-10-05T08:36:12.449Z,3.75
2022-10-05T08:38:42.445Z,3.92
2022-10-05T08:41:12.485Z,5.27
2022-10-05T08:43:42.510Z,5.23
2022-10-05T08:46:12.590Z,4.41
2022-10-05T08:48:42.544Z,4.33
2022-10-05T08:51:12.581Z,3.94
2022-10-05T08:53:42.603Z,3.67
2022-10-05T08:56:16.380Z,3.27
2022-10-05T08:58:42.625Z,3.83
2022-10-05T09:01:12.696Z,4.29
2022-10-05T09:03:42.675Z,6.32
2022-10-05T09:06:12.707Z,4.52
2022-10-05T09:08:42.744Z,4.06
2022-10-05T09:13:42.772Z,3.39
2022-10-05T09:16:12.884Z,3.1
2022-10-05T09:18:42.830Z,3.4
2022-10-05T09:21:12.842Z,3.06
2022-10-05T09:23:42.907Z,2.39
2022-10-05T09:26:12.909Z,3.43
2022-10-05T09:28:42.973Z,4.09
2022-10-05T09:31:12.999Z,4.45
2022-10-05T09:33:42.970Z,3.99
2022-10-05T09:36:13.058Z,3.77
2022-10-05T09:38:43.006Z,3.61
2022-10-05T09:41:13.046Z,3.59
2022-10-05T09:46:13.126Z,3.45
2022-10-05T09:48:43.117Z,4.29
2022-10-05T09:51:13.120Z,3.56
2022-10-05T09:53:43.161Z,4.21
2022-10-05T09:56:13.180Z,4.65
2022-10-05T09:58:43.208Z,4.18
2022-10-05T10:01:22.161Z,4.78
2022-10-05T10:03:43.268Z,3.8
2022-10-05T10:06:13.273Z,3.65
2022-10-05T10:08:43.323Z,3.14
2022-10-05T10:11:13.317Z,3.52
2022-10-05T10:16:13.457Z,8.49
2022-10-05T10:18:43.466Z,5.33
2022-10-05T10:21:13.403Z,4.28
2022-10-05T10:23:43.433Z,3.79
2022-10-05T10:26:13.465Z,3.06
2022-10-05T10:31:13.530Z,3.76
2022-10-05T10:33:43.523Z,3.83
2022-10-05T10:38:43.577Z,3.4
2022-10-05T10:41:13.602Z,7.4
2022-10-05T10:43:43.620Z,5.02
2022-10-05T10:46:13.723Z,4.61
2022-10-05T10:48:43.671Z,4.69
2022-10-05T10:51:13.681Z,3.94
2022-10-05T10:53:43.716Z,7.76
2022-10-05T10:58:43.778Z,6.29
2022-10-05T11:01:13.822Z,7.72
2022-10-05T11:03:43.800Z,5.51
2022-10-05T11:06:13.852Z,4.62
2022-10-05T11:08:43.860Z,4.64
2022-10-05T11:11:13.869Z,3.5
2022-10-05T11:13:43.900Z,3.54
2022-10-05T11:18:43.957Z,3.4
2022-10-05T11:23:43.992Z,2.46
2022-10-05T11:26:14.027Z,2.67
2022-10-05T11:28:44.035Z,2.49
2022-10-05T11:33:44.099Z,2.84
2022-10-05T11:36:14.105Z,2.95
2022-10-05T11:43:44.198Z,3.38
2022-10-05T11:46:14.261Z,2.45
2022-10-05T11:48:44.231Z,4.27
2022-10-05T11:51:14.254Z,3.08
2022-10-05T11:53:44.275Z,6.03
2022-10-05T11:56:14.325Z,3.76
2022-10-05T11:58:44.322Z,3.13
2022-10-05T12:01:14.371Z,2.93
2022-10-05T12:06:14.388Z,3.23
2022-10-05T12:08:44.437Z,2.83
2022-10-05T12:11:14.452Z,2.41
2022-10-05T12:13:44.472Z,2.6
2022-10-05T12:18:44.508Z,3.45
2022-10-05T12:21:14.545Z,4.28
2022-10-05T12:23:44.555Z,4.57
2022-10-05T12:28:44.590Z,3.39
2022-10-05T12:31:14.671Z,3.07
2022-10-05T12:33:44.655Z,4.98
2022-10-05T12:38:44.703Z,5.18
2022-10-05T12:41:14.730Z,3.54
2022-10-05T12:46:14.774Z,5.19
2022-10-05T12:48:44.794Z,3.75
2022-10-05T12:51:14.823Z,3.11
2022-10-05T12:53:44.847Z,2.34
2022-10-05T12:58:44.880Z,3.26
2022-10-05T13:01:14.955Z,5.08
2022-10-05T13:03:44.942Z,3.86
2022-10-05T13:06:15.344Z,4.19
2022-10-05T13:08:44.980Z,8.86
2022-10-05T13:11:15.324Z,6.85
2022-10-05T13:13:45.040Z,4.61
2022-10-05T13:16:15.374Z,3.28
2022-10-05T13:23:45.117Z,2.89
2022-10-05T13:26:15.643Z,2.7
2022-10-05T13:28:45.184Z,3.58
2022-10-05T13:31:15.264Z,2.38
2022-10-05T13:33:45.230Z,5.42
2022-10-05T13:36:15.557Z,3.82
2022-10-05T13:38:45.277Z,2.75
2022-10-05T13:41:15.293Z,3.37
2022-10-05T13:43:45.309Z,3.28
2022-10-05T13:46:15.714Z,3.95
2022-10-05T13:53:45.411Z,2.66
2022-10-05T13:56:15.428Z,3.23
2022-10-05T13:58:45.456Z,4.7
2022-10-05T14:06:15.531Z,4.02
2022-10-05T14:11:16.273Z,3.87
2022-10-05T14:13:45.608Z,3.39
2022-10-05T14:16:15.632Z,3.69
2022-10-05T14:18:45.642Z,2.37
2022-10-05T14:21:16.078Z,2.95
2022-10-05T14:26:15.724Z,2.82
2022-10-05T14:28:45.739Z,2.97
2022-10-05T14:31:16.216Z,2.28
2022-10-05T14:33:45.799Z,2.48
2022-10-05T14:36:15.808Z,2.47
2022-10-05T14:38:45.827Z,2.71
2022-10-05T14:41:16.260Z,2
2022-10-05T14:43:45.883Z,2.01
2022-10-05T14:46:16.099Z,4.15
2022-10-05T14:51:15.957Z,3.1
2022-10-05T14:53:45.970Z,2.73
2022-10-05T14:58:46.010Z,4.11
2022-10-05T15:01:16.097Z,2.91
2022-10-05T15:03:46.055Z,2.46
2022-10-05T15:06:16.337Z,3.18
2022-10-05T15:08:46.126Z,3.17
2022-10-05T15:11:16.135Z,2.37
2022-10-05T15:13:46.170Z,2.28
2022-10-05T15:18:46.225Z,2.72
2022-10-05T15:21:16.241Z,2.59
2022-10-05T15:23:46.262Z,3.43
2022-10-05T15:26:16.508Z,3.2
2022-10-05T15:28:46.308Z,4.02
2022-10-05T15:31:16.424Z,4.72
2022-10-05T15:33:46.354Z,4.64
2022-10-05T15:36:16.593Z,3.71
2022-10-05T15:38:46.393Z,3.37
2022-10-05T15:41:16.435Z,3.41
2022-10-05T15:43:46.442Z,3.7
2022-10-05T15:51:16.531Z,7
2022-10-05T15:53:46.538Z,7
2022-10-05T15:56:16.576Z,5.01
2022-10-05T16:01:16.664Z,4.68
2022-10-05T16:03:46.644Z,4.49
2022-10-05T16:06:16.655Z,2.82
2022-10-05T16:08:46.689Z,2.9
2022-10-05T16:21:16.806Z,2.56
2022-10-05T16:23:46.823Z,2.2
2022-10-05T16:26:16.836Z,1.84
2022-10-05T16:31:16.982Z,2.01
2022-10-05T16:33:47.192Z,2.28
2022-10-05T16:36:16.951Z,4.01
2022-10-05T16:38:46.964Z,3.02
2022-10-05T16:41:16.989Z,2.84
2022-10-05T16:46:17.490Z,2.48
2022-10-05T16:48:47.077Z,2.55
2022-10-05T16:51:17.079Z,1.8
2022-10-05T16:53:47.108Z,1.94
2022-10-05T16:56:17.133Z,1.9
2022-10-05T16:58:47.154Z,1.96
2022-10-05T17:03:47.188Z,2.22
2022-10-05T17:06:17.222Z,2.48
2022-10-05T17:08:47.260Z,2.12
2022-10-05T17:16:17.389Z,2.54
2022-10-05T17:18:47.336Z,3.15
2022-10-05T17:23:47.392Z,2.55
2022-10-05T17:26:17.399Z,2.25
2022-10-05T17:28:47.420Z,2.52
2022-10-05T17:31:17.519Z,2.87
2022-10-05T17:36:17.512Z,1.9
2022-10-05T17:38:47.525Z,1.57
2022-10-05T17:41:17.559Z,1.59
2022-10-05T17:43:47.580Z,2.67
2022-10-05T17:51:17.655Z,2.37
2022-10-05T17:53:47.678Z,4.89
2022-10-05T17:56:17.688Z,3.38
2022-10-05T17:58:47.712Z,2.82
2022-10-05T18:01:17.791Z,2.34
2022-10-05T18:03:47.760Z,2.27
2022-10-05T18:06:17.775Z,2.45
2022-10-05T18:11:17.823Z,2.97
2022-10-05T18:16:17.937Z,2.37
2022-10-05T18:23:47.959Z,3.55
2022-10-05T18:26:17.966Z,2.56
2022-10-05T18:28:48.031Z,3.89
2022-10-05T18:31:18.091Z,2.89
2022-10-05T18:36:18.078Z,1.83
2022-10-05T18:38:48.092Z,3.45
2022-10-05T18:41:18.111Z,3.63
2022-10-05T18:46:18.233Z,5.83
2022-10-05T18:48:48.197Z,7.38
2022-10-05T18:51:18.257Z,5.69
2022-10-05T18:53:48.230Z,3.82
2022-10-05T19:03:48.343Z,3.35
2022-10-05T19:08:48.376Z,2.59
2022-10-05T19:13:48.430Z,2.32
2022-10-05T19:16:18.495Z,3.77
2022-10-05T19:21:18.500Z,2.51
2022-10-05T19:28:48.584Z,3.36
2022-10-05T19:31:18.677Z,4.36
2022-10-05T19:33:48.625Z,4.03
2022-10-05T19:36:18.630Z,3.81
2022-10-05T19:38:48.660Z,3.28
2022-10-05T19:41:18.679Z,3.28
2022-10-05T19:43:48.696Z,3.36
2022-10-05T19:46:19.969Z,2.99
2022-10-05T19:48:48.781Z,2.26
2022-10-05T19:51:18.773Z,4.6
2022-10-05T19:53:48.803Z,3.99
2022-10-05T19:58:48.841Z,2.97
2022-10-05T20:01:18.933Z,2.67
2022-10-05T20:03:48.887Z,2.98
2022-10-05T20:06:18.914Z,2.76
2022-10-05T20:11:18.963Z,2.42
2022-10-05T20:13:48.975Z,5.76
2022-10-05T20:16:19.083Z,5.3
2022-10-05T20:21:19.050Z,4.24
2022-10-05T20:26:19.104Z,2.51
2022-10-05T20:28:49.191Z,2.26
2022-10-05T20:31:19.157Z,1.41
2022-10-05T20:33:49.183Z,1.06
2022-10-05T20:36:19.206Z,0.99
2022-10-05T20:38:49.216Z,1.25
2022-10-05T20:41:19.240Z,2.32
2022-10-05T20:43:49.272Z,1.71
2022-10-05T20:46:19.318Z,1.15
2022-10-05T20:53:49.370Z,1.02
2022-10-05T20:56:19.400Z,1
2022-10-05T20:58:49.422Z,0.91
2022-10-05T21:03:49.446Z,0.96
2022-10-05T21:06:19.474Z,0.76
2022-10-05T21:16:19.641Z,6.21
2022-10-05T21:18:49.586Z,4.02
2022-10-05T21:21:19.627Z,2.71
2022-10-05T21:23:49.634Z,2.19
2022-10-05T21:26:19.665Z,1.78
2022-10-05T21:28:49.744Z,5.03
2022-10-05T21:31:19.731Z,3.46
2022-10-05T21:33:49.740Z,2.8
2022-10-05T21:36:22.448Z,2.32
2022-10-05T21:38:49.804Z,2.28
2022-10-05T21:41:19.817Z,2.07
2022-10-05T21:43:49.842Z,2.02
2022-10-05T21:46:19.859Z,1.34
2022-10-05T21:51:19.919Z,1.93
2022-10-05T21:53:49.937Z,3.06
2022-10-05T21:56:19.968Z,1.77
2022-10-05T22:01:22.636Z,2.13
2022-10-05T22:03:50.072Z,1.21
2022-10-05T22:06:20.050Z,1.82
2022-10-05T22:13:50.115Z,2.14
2022-10-05T22:16:20.170Z,1.89
2022-10-05T22:18:50.188Z,2.76
2022-10-05T22:21:20.192Z,1.7
2022-10-05T22:23:50.206Z,1.16
2022-10-05T22:26:20.238Z,0.83
2022-10-05T22:28:50.260Z,1.51
2022-10-05T22:31:20.340Z,1.02
2022-10-05T22:38:50.348Z,1.06
2022-10-05T22:41:20.372Z,1.07
2022-10-05T22:46:20.501Z,1.16
2022-10-05T22:48:50.435Z,1.51
2022-10-05T22:53:50.491Z,0.8
2022-10-05T22:58:50.533Z,2.14
2022-10-05T23:03:50.584Z,1.45
2022-10-05T23:06:20.618Z,1.16
2022-10-05T23:08:50.642Z,1.39
2022-10-05T23:13:50.657Z,1.28
2022-10-05T23:16:20.721Z,1.19
2022-10-05T23:18:50.707Z,1.87
2022-10-05T23:21:20.743Z,1.53
2022-10-05T23:23:50.769Z,2.48
2022-10-05T23:28:50.807Z,1.56
2022-10-05T23:31:20.851Z,1.12
2022-10-05T23:36:20.898Z,1.27
2022-10-05T23:38:50.917Z,1.65
2022-10-05T23:41:20.933Z,2.86
2022-10-05T23:43:50.960Z,2.99
2022-10-05T23:48:51.002Z,2.24
2022-10-05T23:53:51.054Z,1.96
2022-10-05T23:56:21.096Z,3.31
2022-10-05T23:58:51.099Z,6.7
